Time;durP1;ratioP1;P1;durP2;ratioP2;P2;SDS_P1;SDS_P2;PMS_P1;PMS_P2;Temp;Humidity;BMP_temperature;BMP_pressure;BME280_temperature;BME280_humidity;BME280_pressure;Samples;Min_cycle;Max_cycle;Signal;HPM_P1;HPM_P2
2021/03/13 00:00:37;;;;;;;1.15;1.00;;;6.00;94.60;;;;;;5053700;28;20227;-76
2021/03/13 00:03:04;;;;;;;1.67;0.85;;;6.00;95.00;;;;;;5055556;28;20769;-77
2021/03/13 00:05:32;;;;;;;0.75;0.65;;;6.10;95.20;;;;;;5055409;28;20275;-77
2021/03/13 00:07:59;;;;;;;3.05;0.90;;;6.20;94.70;;;;;;5054182;28;20289;-76
2021/03/13 00:10:26;;;;;;;1.98;0.70;;;6.20;94.70;;;;;;5055522;28;20237;-77
2021/03/13 00:12:53;;;;;;;0.93;0.82;;;6.20;94.90;;;;;;5045519;28;20295;-76
2021/03/13 00:15:20;;;;;;;2.67;1.00;;;6.20;95.20;;;;;;5035691;28;20223;-77
2021/03/13 00:17:49;;;;;;;1.55;1.00;;;6.20;95.50;;;;;;5036105;28;20295;-76
2021/03/13 00:20:18;;;;;;;1.73;1.15;;;6.20;95.70;;;;;;5036056;28;20215;-77
2021/03/13 00:22:45;;;;;;;0.70;0.70;;;6.30;96.00;;;;;;5037184;28;20207;-75
2021/03/13 00:25:13;;;;;;;1.88;1.08;;;6.40;96.30;;;;;;5036945;28;20207;-76
2021/03/13 00:27:46;;;;;;;2.70;0.80;;;6.40;96.70;;;;;;5042678;28;20234;-76
2021/03/13 00:30:15;;;;;;;1.73;1.00;;;6.50;96.80;;;;;;5046828;28;20214;-78
2021/03/13 00:32:43;;;;;;;1.63;1.02;;;6.50;96.60;;;;;;5050189;28;20203;-76
2021/03/13 00:35:10;;;;;;;0.70;0.70;;;6.60;96.50;;;;;;5062788;28;20286;-76
2021/03/13 00:37:36;;;;;;;2.80;1.13;;;6.60;96.00;;;;;;5060825;28;20299;-76
2021/03/13 00:40:04;;;;;;;2.53;0.80;;;6.70;95.90;;;;;;5062563;28;20273;-76
2021/03/13 00:42:30;;;;;;;1.95;1.00;;;6.70;95.00;;;;;;5060377;28;20303;-76
2021/03/13 00:44:57;;;;;;;4.35;0.80;;;6.80;94.10;;;;;;5057580;28;20202;-77
2021/03/13 00:47:23;;;;;;;1.63;0.80;;;6.80;93.20;;;;;;5059542;28;20281;-76
2021/03/13 00:49:50;;;;;;;1.42;0.85;;;6.80;92.80;;;;;;5059535;28;20208;-75
2021/03/13 00:52:17;;;;;;;1.98;0.70;;;6.80;91.70;;;;;;5060356;28;20597;-75
2021/03/13 00:54:43;;;;;;;0.80;0.75;;;6.90;91.00;;;;;;5064498;28;20319;-77
2021/03/13 00:57:10;;;;;;;1.38;0.50;;;6.90;90.50;;;;;;5048361;28;20265;-76
2021/03/13 00:59:36;;;;;;;1.33;0.60;;;6.90;90.30;;;;;;5041335;28;20275;-76
2021/03/13 01:02:03;;;;;;;0.98;0.55;;;6.90;88.90;;;;;;5042605;28;20250;-76
2021/03/13 01:04:29;;;;;;;1.10;0.60;;;6.90;88.80;;;;;;5042467;28;20207;-75
2021/03/13 01:06:56;;;;;;;1.45;0.60;;;6.90;87.20;;;;;;5039064;28;20225;-75
2021/03/13 01:09:23;;;;;;;0.80;0.70;;;6.90;87.80;;;;;;5036033;28;20274;-76
2021/03/13 01:11:50;;;;;;;3.25;0.70;;;6.90;88.10;;;;;;5034722;28;20258;-76
2021/03/13 01:14:17;;;;;;;3.05;0.80;;;6.90;88.00;;;;;;5036081;28;20270;-75
2021/03/13 01:16:43;;;;;;;1.20;0.85;;;6.90;88.30;;;;;;5035194;28;20282;-75
2021/03/13 01:19:10;;;;;;;1.02;0.70;;;6.90;88.80;;;;;;5035381;28;20294;-77
2021/03/13 01:21:37;;;;;;;4.60;0.95;;;7.00;89.40;;;;;;5035841;28;20757;-75
2021/03/13 01:24:04;;;;;;;1.00;0.90;;;7.00;89.20;;;;;;5035770;28;20291;-76
2021/03/13 01:26:31;;;;;;;3.63;1.17;;;7.10;88.60;;;;;;5081737;23;20276;-80
2021/03/13 01:28:57;;;;;;;3.38;1.10;;;7.10;88.40;;;;;;5067178;28;20609;-79
2021/03/13 01:31:24;;;;;;;1.90;0.77;;;7.10;88.70;;;;;;5068776;28;20677;-80
2021/03/13 01:33:50;;;;;;;3.88;1.55;;;7.10;89.00;;;;;;5063933;28;20209;-79
2021/03/13 01:36:17;;;;;;;2.15;1.05;;;7.10;89.20;;;;;;5075819;28;20287;-80
2021/03/13 01:38:43;;;;;;;2.20;0.95;;;7.10;90.00;;;;;;5072140;28;20221;-80
2021/03/13 01:41:11;;;;;;;2.45;0.80;;;7.10;90.60;;;;;;5048037;28;20478;-79
2021/03/13 01:43:39;;;;;;;2.85;0.93;;;7.00;90.70;;;;;;5048890;28;20228;-80
2021/03/13 01:46:06;;;;;;;2.25;1.10;;;7.00;91.60;;;;;;5064365;28;20218;-80
2021/03/13 01:48:36;;;;;;;2.00;1.30;;;7.10;92.10;;;;;;5064198;28;20634;-80
2021/03/13 01:51:04;;;;;;;1.60;1.27;;;7.00;92.70;;;;;;5064171;28;20289;-79
2021/03/13 01:53:31;;;;;;;2.85;2.05;;;7.00;93.60;;;;;;5066747;28;20203;-80
2021/03/13 01:55:57;;;;;;;1.92;1.10;;;7.00;94.20;;;;;;5075796;28;20227;-80
2021/03/13 01:58:25;;;;;;;3.05;1.30;;;7.00;94.90;;;;;;5076091;28;20234;-79
2021/03/13 02:00:52;;;;;;;4.65;1.73;;;7.00;95.60;;;;;;5051637;28;20214;-79
2021/03/13 02:03:18;;;;;;;3.80;1.15;;;6.90;95.90;;;;;;5046238;28;20207;-79
2021/03/13 02:05:46;;;;;;;5.00;1.23;;;6.90;96.00;;;;;;5047196;28;20287;-80
2021/03/13 02:08:27;;;;;;;3.30;1.10;;;6.90;96.00;;;;;;5047380;28;20203;-79
2021/03/13 02:11:01;;;;;;;7.60;1.65;;;6.90;96.00;;;;;;5068314;28;20201;-80
2021/03/13 02:13:33;;;;;;;1.90;1.40;;;6.90;95.80;;;;;;5058476;28;20728;-79
2021/03/13 02:16:10;;;;;;;5.07;1.42;;;6.90;95.50;;;;;;5048175;28;20290;-79
2021/03/13 02:18:43;;;;;;;4.32;1.45;;;7.00;95.30;;;;;;5068374;28;20186;-80
2021/03/13 02:21:15;;;;;;;2.10;1.42;;;7.00;95.00;;;;;;5075758;28;20245;-79
2021/03/13 02:24:09;;;;;;;1.05;0.93;;;7.00;94.90;;;;;;5071352;28;20568;-79
2021/03/13 02:26:53;;;;;;;2.25;1.65;;;7.00;94.70;;;;;;5056032;28;20254;-79
2021/03/13 02:29:51;;;;;;;2.50;1.02;;;7.00;94.20;;;;;;5051136;28;20294;-79
2021/03/13 02:32:24;;;;;;;5.15;1.20;;;7.10;93.40;;;;;;5044880;28;20206;-79
2021/03/13 02:34:58;;;;;;;3.17;1.25;;;7.10;92.40;;;;;;5071874;28;20280;-79
2021/03/13 02:37:28;;;;;;;1.67;1.20;;;7.10;92.00;;;;;;5055946;28;20194;-78
2021/03/13 02:39:57;;;;;;;3.45;1.33;;;7.10;92.10;;;;;;5053152;28;20299;-78
2021/03/13 02:42:25;;;;;;;2.05;1.30;;;7.10;92.20;;;;;;5054212;28;20544;-79
2021/03/13 02:44:53;;;;;;;3.63;1.20;;;7.10;91.40;;;;;;5055813;28;20207;-78
2021/03/13 02:47:20;;;;;;;2.53;1.45;;;7.10;90.80;;;;;;5071504;28;20214;-79
2021/03/13 02:49:50;;;;;;;4.28;1.20;;;7.20;90.60;;;;;;5075850;28;20218;-78
2021/03/13 02:52:18;;;;;;;3.50;1.48;;;7.20;90.70;;;;;;5060017;28;20198;-79
2021/03/13 02:54:47;;;;;;;3.08;1.42;;;7.20;90.20;;;;;;5047938;28;20227;-80
2021/03/13 02:57:15;;;;;;;6.78;0.98;;;7.30;89.00;;;;;;5054429;28;20263;-79
2021/03/13 02:59:43;;;;;;;4.63;1.30;;;7.40;87.30;;;;;;5073987;28;20208;-78
2021/03/13 03:02:13;;;;;;;1.73;0.73;;;7.40;85.00;;;;;;5075492;28;20205;-79
2021/03/13 03:04:41;;;;;;;3.50;0.77;;;7.50;82.60;;;;;;5073326;28;20190;-79
2021/03/13 03:07:09;;;;;;;2.75;1.00;;;7.60;81.20;;;;;;5049165;28;20219;-79
2021/03/13 03:09:36;;;;;;;4.90;1.10;;;7.60;79.90;;;;;;5037040;28;20278;-79
2021/03/13 03:12:04;;;;;;;2.05;0.82;;;7.60;79.30;;;;;;5041607;28;20605;-78
2021/03/13 03:14:32;;;;;;;2.65;1.10;;;7.70;78.00;;;;;;5057046;28;20337;-79
2021/03/13 03:17:02;;;;;;;1.60;0.90;;;7.70;76.40;;;;;;5055703;28;20518;-78
2021/03/13 03:19:30;;;;;;;2.47;1.02;;;7.70;76.00;;;;;;5056905;28;20257;-77
2021/03/13 03:21:57;;;;;;;2.97;0.70;;;7.70;76.00;;;;;;5057059;28;20241;-79
2021/03/13 03:24:24;;;;;;;1.20;0.98;;;7.70;75.30;;;;;;5074819;28;20206;-79
2021/03/13 03:26:50;;;;;;;3.70;1.00;;;7.80;75.40;;;;;;5075279;28;20248;-79
2021/03/13 03:29:18;;;;;;;3.63;1.15;;;7.80;75.40;;;;;;5057515;28;20452;-79
2021/03/13 03:31:45;;;;;;;3.28;0.93;;;7.80;75.90;;;;;;5046037;28;20241;-78
2021/03/13 03:34:11;;;;;;;4.63;0.95;;;7.80;75.40;;;;;;5035558;28;20207;-78
2021/03/13 03:36:39;;;;;;;3.42;1.05;;;7.80;75.40;;;;;;5035975;28;20314;-79
2021/03/13 03:39:05;;;;;;;4.53;0.80;;;7.70;76.40;;;;;;5036791;28;20710;-78
2021/03/13 03:41:33;;;;;;;2.85;1.27;;;7.70;77.90;;;;;;5040081;28;20302;-78
2021/03/13 03:44:06;;;;;;;4.30;1.10;;;7.70;77.40;;;;;;5053918;28;20199;-79
2021/03/13 03:46:34;;;;;;;2.70;0.82;;;7.70;77.50;;;;;;5054753;28;20215;-79
2021/03/13 03:49:04;;;;;;;1.83;1.10;;;7.70;77.70;;;;;;5040560;28;20211;-79
2021/03/13 03:51:31;;;;;;;3.53;1.33;;;7.60;78.00;;;;;;5035494;28;20300;-79
2021/03/13 03:54:03;;;;;;;5.13;1.10;;;7.60;78.50;;;;;;5035950;28;20238;-79
2021/03/13 03:56:30;;;;;;;5.00;1.23;;;7.60;79.40;;;;;;5065810;28;20221;-80
2021/03/13 03:58:57;;;;;;;2.63;1.05;;;7.60;79.40;;;;;;5063467;28;20207;-79
2021/03/13 04:01:26;;;;;;;2.65;0.77;;;7.50;79.90;;;;;;5055206;28;20199;-80
2021/03/13 04:03:56;;;;;;;4.97;0.80;;;7.60;79.40;;;;;;5050025;28;20310;-78
2021/03/13 04:06:24;;;;;;;1.00;0.95;;;7.50;79.40;;;;;;5053046;28;20218;-78
2021/03/13 04:08:54;;;;;;;2.10;1.60;;;7.60;78.90;;;;;;5043737;28;20278;-79
2021/03/13 04:11:24;;;;;;;3.08;1.05;;;7.70;77.60;;;;;;5033103;28;20214;-78
2021/03/13 04:13:54;;;;;;;4.75;0.80;;;7.70;77.30;;;;;;5035732;28;20242;-78
2021/03/13 04:16:21;;;;;;;1.77;0.80;;;7.70;76.40;;;;;;5034550;28;20377;-79
2021/03/13 04:18:47;;;;;;;5.65;1.10;;;7.70;75.30;;;;;;5035651;28;20219;-79
2021/03/13 04:21:15;;;;;;;1.45;1.15;;;7.80;75.40;;;;;;5033674;28;20298;-78
2021/03/13 04:23:45;;;;;;;1.15;1.05;;;7.80;75.40;;;;;;5037426;28;20203;-77
2021/03/13 04:26:13;;;;;;;6.05;1.10;;;7.70;75.30;;;;;;5035137;28;20262;-78
2021/03/13 04:28:41;;;;;;;0.95;0.68;;;7.70;76.10;;;;;;5041037;28;20665;-79
2021/03/13 04:31:08;;;;;;;8.07;1.40;;;7.70;75.30;;;;;;5053984;28;20616;-78
2021/03/13 04:33:36;;;;;;;1.48;0.95;;;7.70;75.30;;;;;;5053360;28;20670;-79
2021/03/13 04:36:04;;;;;;;4.72;0.80;;;7.60;75.40;;;;;;5055972;28;20258;-79
2021/03/13 04:38:31;;;;;;;4.38;0.80;;;7.60;75.20;;;;;;5046844;28;20217;-77
2021/03/13 04:40:58;;;;;;;2.35;1.00;;;7.70;74.10;;;;;;5053831;28;20199;-79
2021/03/13 04:43:26;;;;;;;1.55;0.85;;;7.70;72.70;;;;;;5047658;28;20238;-80
2021/03/13 04:45:57;;;;;;;1.70;0.93;;;7.70;72.50;;;;;;5035237;28;20728;-78
2021/03/13 04:48:26;;;;;;;4.05;0.90;;;7.70;72.10;;;;;;5048802;28;20230;-78
2021/03/13 04:50:56;;;;;;;1.20;0.80;;;7.80;71.70;;;;;;5054136;28;20249;-78
2021/03/13 04:53:22;;;;;;;1.85;0.90;;;7.80;71.60;;;;;;5054072;28;20343;-79
2021/03/13 04:55:49;;;;;;;2.15;0.90;;;7.80;71.00;;;;;;5051516;28;20247;-79
2021/03/13 04:58:15;;;;;;;4.90;1.10;;;7.80;71.00;;;;;;5034471;28;20290;-78
2021/03/13 05:00:42;;;;;;;1.85;1.35;;;7.80;69.80;;;;;;5035773;28;20282;-80
2021/03/13 05:03:09;;;;;;;3.35;1.10;;;7.80;70.00;;;;;;5045688;28;20217;-80
2021/03/13 05:05:35;;;;;;;1.33;0.80;;;7.70;69.90;;;;;;5050704;28;20207;-79
2021/03/13 05:08:02;;;;;;;2.80;0.88;;;7.70;70.30;;;;;;5051593;28;20254;-78
2021/03/13 05:10:29;;;;;;;1.77;0.98;;;7.70;70.40;;;;;;5052903;28;20218;-79
2021/03/13 05:12:55;;;;;;;0.82;0.60;;;7.70;70.40;;;;;;5071991;28;20210;-79
2021/03/13 05:15:23;;;;;;;1.75;0.88;;;7.70;69.00;;;;;;5072651;28;20249;-79
2021/03/13 05:17:49;;;;;;;1.75;1.08;;;7.80;67.40;;;;;;5056180;28;20187;-79
2021/03/13 05:20:17;;;;;;;1.65;0.90;;;7.90;66.80;;;;;;5055113;28;20206;-79
2021/03/13 05:22:46;;;;;;;2.95;0.77;;;7.90;66.80;;;;;;5040870;28;20776;-77
2021/03/13 05:25:13;;;;;;;2.45;0.95;;;7.90;66.80;;;;;;5051891;28;20261;-78
2021/03/13 05:27:39;;;;;;;6.18;0.95;;;7.90;66.80;;;;;;5044843;28;20192;-78
2021/03/13 05:30:08;;;;;;;4.82;0.80;;;8.00;65.60;;;;;;5044801;28;20237;-78
2021/03/13 05:32:34;;;;;;;0.70;0.70;;;8.10;65.20;;;;;;5053031;28;20207;-78
2021/03/13 05:35:02;;;;;;;1.85;0.90;;;8.10;64.50;;;;;;5052780;28;20258;-79
2021/03/13 05:37:30;;;;;;;3.50;0.85;;;8.10;64.00;;;;;;5052533;28;20289;-78
2021/03/13 05:39:56;;;;;;;2.15;1.30;;;8.10;63.90;;;;;;5043991;28;20286;-78
2021/03/13 05:42:23;;;;;;;1.98;1.10;;;8.10;63.80;;;;;;5035612;28;20234;-79
2021/03/13 05:44:51;;;;;;;1.55;0.60;;;8.10;64.00;;;;;;5039953;28;20226;-78
2021/03/13 05:47:20;;;;;;;2.95;0.80;;;8.00;63.50;;;;;;5036103;28;20297;-78
2021/03/13 05:49:56;;;;;;;2.60;0.85;;;8.00;63.20;;;;;;5043377;28;20620;-78
2021/03/13 05:52:25;;;;;;;6.28;0.75;;;8.00;62.40;;;;;;5040646;28;20267;-78
2021/03/13 05:54:53;;;;;;;1.83;1.00;;;8.00;62.40;;;;;;5043831;28;20226;-78
2021/03/13 05:57:20;;;;;;;1.20;0.80;;;8.00;63.20;;;;;;5044842;28;20226;-77
2021/03/13 05:59:48;;;;;;;1.58;0.68;;;8.10;61.80;;;;;;5041517;28;20230;-78
2021/03/13 06:02:16;;;;;;;4.30;1.10;;;8.10;61.80;;;;;;5038727;28;20214;-79
2021/03/13 06:04:43;;;;;;;2.13;1.20;;;8.10;61.70;;;;;;5036454;28;20207;-77
2021/03/13 06:07:12;;;;;;;1.55;0.70;;;8.10;61.30;;;;;;5043330;28;20203;-80
2021/03/13 06:09:38;;;;;;;3.30;0.70;;;8.10;60.20;;;;;;5046426;28;20214;-79
2021/03/13 06:12:07;;;;;;;2.90;0.70;;;8.30;59.80;;;;;;5049609;28;20199;-79
2021/03/13 06:14:33;;;;;;;2.25;0.82;;;8.40;59.30;;;;;;5040152;28;20234;-78
2021/03/13 06:17:01;;;;;;;2.58;0.95;;;8.50;58.40;;;;;;5057539;28;20245;-79
2021/03/13 06:19:46;;;;;;;3.65;1.10;;;8.50;58.40;;;;;;5057294;28;20238;-78
2021/03/13 06:22:33;;;;;;;2.28;0.93;;;8.60;58.70;;;;;;5056477;28;20656;-78
2021/03/13 06:25:21;;;;;;;5.55;1.10;;;8.60;57.30;;;;;;5036366;28;625530;-79
2021/03/13 06:27:51;;;;;;;3.55;0.90;;;8.70;56.80;;;;;;5050796;28;20741;-79
2021/03/13 06:30:18;;;;;;;2.08;1.00;;;8.70;56.30;;;;;;5052240;28;20215;-78
2021/03/13 06:32:45;;;;;;;1.95;0.68;;;8.80;55.30;;;;;;5056432;28;20211;-80
2021/03/13 06:35:19;;;;;;;1.20;0.70;;;8.80;54.60;;;;;;5051918;28;20235;-79
2021/03/13 06:37:46;;;;;;;9.25;1.35;;;9.00;53.70;;;;;;5047912;28;20263;-79
2021/03/13 06:40:29;;;;;;;3.17;1.05;;;9.10;53.10;;;;;;5052248;28;20207;-79
2021/03/13 06:42:58;;;;;;;2.38;1.20;;;9.20;52.90;;;;;;5052116;28;20600;-78
2021/03/13 06:45:25;;;;;;;2.42;1.00;;;9.20;52.20;;;;;;5048537;28;20226;-78
2021/03/13 06:47:52;;;;;;;1.25;0.73;;;9.30;51.30;;;;;;5052098;28;20230;-78
2021/03/13 06:50:20;;;;;;;3.40;0.85;;;9.40;49.70;;;;;;5056748;28;20210;-77
2021/03/13 06:52:49;;;;;;;5.45;0.80;;;9.50;50.20;;;;;;5073011;28;20273;-78
2021/03/13 06:55:18;;;;;;;3.17;0.82;;;9.60;49.90;;;;;;5070712;28;20234;-79
2021/03/13 06:57:47;;;;;;;3.72;0.77;;;9.70;49.90;;;;;;5053676;28;20234;-79
2021/03/13 07:00:30;;;;;;;1.52;0.70;;;9.80;50.10;;;;;;5047974;28;20287;-79
2021/03/13 07:03:07;;;;;;;5.63;0.80;;;9.70;50.00;;;;;;5042272;28;20218;-78
2021/03/13 07:05:34;;;;;;;1.60;0.93;;;9.90;50.20;;;;;;5054180;28;20301;-79
2021/03/13 07:08:24;;;;;;;0.60;0.60;;;10.10;47.10;;;;;;5066539;28;20194;-79
2021/03/13 07:10:51;;;;;;;4.00;0.82;;;10.10;46.40;;;;;;5054985;28;20208;-79
2021/03/13 07:13:46;;;;;;;1.73;0.80;;;10.30;46.40;;;;;;5043731;28;20277;-79
2021/03/13 07:16:30;;;;;;;6.43;1.33;;;10.30;45.90;;;;;;4995899;28;20266;-78
2021/03/13 07:18:59;;;;;;;1.20;0.55;;;10.20;45.80;;;;;;5047195;28;20195;-78
2021/03/13 07:21:26;;;;;;;2.50;0.95;;;10.30;45.70;;;;;;5058027;28;20214;-79
2021/03/13 07:23:58;;;;;;;2.42;0.95;;;10.20;45.70;;;;;;5076322;28;20194;-77
2021/03/13 07:26:28;;;;;;;1.55;0.75;;;10.20;45.80;;;;;;5084138;23;20596;-77
2021/03/13 07:29:00;;;;;;;2.88;0.85;;;10.10;47.10;;;;;;5073203;28;20206;-77
2021/03/13 07:31:30;;;;;;;2.28;1.20;;;10.00;49.20;;;;;;5068240;28;20221;-77
2021/03/13 07:34:00;;;;;;;3.25;1.10;;;9.80;50.00;;;;;;5067017;28;20209;-77
2021/03/13 07:36:27;;;;;;;3.88;1.15;;;9.80;50.10;;;;;;5055405;28;20259;-77
2021/03/13 07:38:58;;;;;;;2.88;1.30;;;9.80;50.10;;;;;;5043307;28;20200;-77
2021/03/13 07:41:25;;;;;;;2.10;1.10;;;10.00;48.10;;;;;;5037548;28;20210;-78
2021/03/13 07:43:53;;;;;;;1.33;0.80;;;10.10;46.30;;;;;;5041502;28;20212;-78
2021/03/13 07:46:22;;;;;;;2.65;0.90;;;10.30;45.50;;;;;;5059527;28;20252;-77
2021/03/13 07:48:50;;;;;;;1.35;0.90;;;10.30;44.90;;;;;;5054747;28;20191;-78
2021/03/13 07:51:17;;;;;;;4.43;0.80;;;10.40;45.00;;;;;;5037253;28;20218;-81
2021/03/13 07:53:44;;;;;;;0.98;0.75;;;10.40;43.90;;;;;;5039020;28;20204;-77
2021/03/13 07:56:13;;;;;;;1.75;0.68;;;10.50;43.50;;;;;;5045268;28;20322;-79
2021/03/13 07:58:39;;;;;;;1.60;0.80;;;10.70;42.70;;;;;;5040397;28;20215;-78
2021/03/13 08:01:06;;;;;;;0.70;0.60;;;10.90;42.90;;;;;;5055766;28;20198;-77
2021/03/13 08:03:43;;;;;;;3.22;0.82;;;11.00;41.40;;;;;;5055511;28;20253;-78
2021/03/13 08:06:11;;;;;;;1.70;0.70;;;11.20;40.60;;;;;;5051618;28;20226;-77
2021/03/13 08:08:39;;;;;;;3.53;1.00;;;11.30;40.70;;;;;;5051147;28;20226;-78
2021/03/13 08:11:06;;;;;;;2.08;0.80;;;11.30;40.70;;;;;;5050797;28;20187;-77
2021/03/13 08:13:53;;;;;;;0.90;0.43;;;11.40;39.40;;;;;;5049892;28;20211;-77
2021/03/13 08:16:35;;;;;;;1.80;0.73;;;11.50;38.80;;;;;;5049808;28;20237;-77
2021/03/13 08:19:02;;;;;;;2.45;0.70;;;11.60;38.60;;;;;;5032910;28;20192;-77
2021/03/13 08:21:50;;;;;;;0.60;0.60;;;11.60;37.90;;;;;;5051995;28;20210;-77
2021/03/13 08:24:44;;;;;;;3.05;0.77;;;11.40;37.30;;;;;;5051500;28;20211;-79
2021/03/13 08:27:12;;;;;;;2.72;0.82;;;11.40;36.80;;;;;;5030252;28;20771;-77
2021/03/13 08:29:50;;;;;;;0.70;0.70;;;11.40;37.70;;;;;;5029363;28;20203;-78
2021/03/13 08:32:17;;;;;;;3.55;0.80;;;11.60;37.30;;;;;;5042861;28;20238;-76
2021/03/13 08:34:45;;;;;;;1.05;0.50;;;11.50;37.40;;;;;;5037226;28;20241;-78
2021/03/13 08:37:18;;;;;;;1.40;0.60;;;11.40;37.90;;;;;;5031116;28;20313;-77
2021/03/13 08:39:44;;;;;;;2.30;0.65;;;11.40;37.70;;;;;;5033823;28;20199;-77
2021/03/13 08:42:28;;;;;;;3.70;1.05;;;11.40;38.40;;;;;;5045059;28;20215;-77
2021/03/13 08:45:16;;;;;;;2.70;0.90;;;11.40;36.90;;;;;;5041420;28;20289;-76
2021/03/13 08:47:48;;;;;;;2.35;0.65;;;11.40;35.80;;;;;;5037119;28;20214;-75
2021/03/13 08:50:54;;;;;;;1.55;0.70;;;11.40;35.70;;;;;;5020185;28;20219;-77
2021/03/13 08:53:38;;;;;;;1.35;0.90;;;11.60;35.80;;;;;;5018263;28;20210;-78
2021/03/13 08:56:25;;;;;;;0.57;0.50;;;11.50;35.10;;;;;;5017668;28;20276;-77
2021/03/13 08:58:53;;;;;;;3.67;0.93;;;11.70;34.90;;;;;;5025205;28;20316;-78
2021/03/13 09:01:21;;;;;;;2.45;0.65;;;11.90;34.40;;;;;;5036944;28;20243;-76
2021/03/13 09:03:49;;;;;;;1.70;0.80;;;11.70;36.40;;;;;;5036138;28;20203;-78
2021/03/13 09:06:17;;;;;;;0.75;0.70;;;11.50;37.30;;;;;;5036456;28;20302;-76
2021/03/13 09:08:44;;;;;;;1.42;0.60;;;11.50;37.30;;;;;;5031336;28;20659;-77
2021/03/13 09:11:11;;;;;;;1.73;0.60;;;11.30;39.50;;;;;;5036931;28;20269;-77
2021/03/13 09:13:37;;;;;;;1.88;0.70;;;11.20;39.30;;;;;;5037298;28;20207;-77
2021/03/13 09:16:17;;;;;;;0.90;0.73;;;11.10;39.40;;;;;;5040736;28;20245;-78
2021/03/13 09:18:52;;;;;;;2.30;1.10;;;10.90;40.30;;;;;;5048260;28;20299;-76
2021/03/13 09:21:49;;;;;;;2.13;0.90;;;10.80;40.00;;;;;;5047894;28;20210;-78
2021/03/13 09:24:19;;;;;;;0.60;0.60;;;10.70;40.90;;;;;;5045948;28;20192;-78
2021/03/13 09:26:50;;;;;;;3.63;1.10;;;10.50;41.20;;;;;;5039192;28;20488;-76
2021/03/13 09:29:24;;;;;;;2.55;0.60;;;10.40;41.80;;;;;;5044354;28;20199;-77
2021/03/13 09:31:55;;;;;;;1.88;0.73;;;10.20;44.60;;;;;;5053002;28;20221;-77
2021/03/13 09:34:21;;;;;;;2.58;0.70;;;10.00;45.70;;;;;;5053005;28;20237;-77
2021/03/13 09:36:48;;;;;;;2.03;1.20;;;9.80;47.80;;;;;;5053604;28;20238;-76
2021/03/13 09:39:23;;;;;;;0.60;0.60;;;9.70;49.10;;;;;;5053127;28;20200;-77
2021/03/13 09:42:04;;;;;;;2.38;0.70;;;9.60;48.50;;;;;;5051048;28;20268;-79
2021/03/13 09:44:31;;;;;;;2.15;0.60;;;9.70;47.00;;;;;;5040925;28;20226;-77
2021/03/13 09:46:58;;;;;;;1.45;0.80;;;9.80;45.40;;;;;;5042195;28;20223;-78
2021/03/13 09:49:26;;;;;;;0.90;0.60;;;9.90;46.10;;;;;;5031908;28;20243;-78
2021/03/13 09:51:52;;;;;;;2.30;0.80;;;10.00;45.10;;;;;;5022701;28;20212;-77
2021/03/13 09:54:20;;;;;;;0.63;0.60;;;10.00;45.90;;;;;;5034145;28;20243;-79
2021/03/13 09:56:47;;;;;;;1.83;0.80;;;10.00;45.10;;;;;;5046019;28;20231;-77
2021/03/13 09:59:18;;;;;;;1.55;0.60;;;10.00;45.70;;;;;;5045490;28;20230;-77
2021/03/13 10:01:44;;;;;;;2.03;0.80;;;10.00;44.30;;;;;;5033078;28;20234;-76
2021/03/13 10:04:11;;;;;;;1.00;0.80;;;10.10;45.10;;;;;;5032258;28;20618;-77
2021/03/13 10:06:37;;;;;;;1.67;0.60;;;10.20;43.40;;;;;;5048628;28;20231;-76
2021/03/13 10:09:04;;;;;;;1.88;0.95;;;10.30;44.60;;;;;;5046362;28;20204;-77
2021/03/13 10:11:43;;;;;;;1.63;0.75;;;10.50;42.60;;;;;;5019480;28;20622;-77
2021/03/13 10:14:19;;;;;;;0.50;0.50;;;10.60;41.70;;;;;;5020538;28;20305;-77
2021/03/13 10:16:46;;;;;;;1.20;0.60;;;10.70;41.10;;;;;;5026059;28;20258;-76
2021/03/13 10:19:34;;;;;;;2.13;0.80;;;10.60;40.10;;;;;;5038805;28;20199;-75
2021/03/13 10:22:09;;;;;;;0.88;0.70;;;10.60;41.30;;;;;;5032317;28;20234;-76
2021/03/13 10:24:43;;;;;;;1.50;0.80;;;10.50;42.50;;;;;;5038682;28;20203;-77
2021/03/13 10:27:11;;;;;;;1.90;0.90;;;10.40;43.60;;;;;;5042555;28;20239;-78
2021/03/13 10:29:38;;;;;;;1.60;0.63;;;10.30;44.70;;;;;;5037699;28;20215;-77
2021/03/13 10:32:05;;;;;;;0.60;0.50;;;10.20;45.80;;;;;;5040616;28;20230;-77
2021/03/13 10:34:35;;;;;;;2.80;0.85;;;10.10;46.20;;;;;;5037004;28;20231;-77
2021/03/13 10:37:02;;;;;;;1.23;0.80;;;10.10;47.10;;;;;;5037117;28;20241;-76
2021/03/13 10:39:29;;;;;;;3.20;1.00;;;10.00;49.20;;;;;;5018035;28;20725;-77
2021/03/13 10:41:58;;;;;;;3.45;0.90;;;10.00;49.20;;;;;;5030842;28;20240;-79
2021/03/13 10:44:26;;;;;;;2.13;0.65;;;9.90;50.20;;;;;;5041846;28;20214;-77
2021/03/13 10:46:53;;;;;;;2.10;0.68;;;9.90;50.30;;;;;;5032019;28;20251;-78
2021/03/13 10:49:26;;;;;;;0.73;0.63;;;9.90;50.20;;;;;;5021948;28;20215;-79
2021/03/13 10:51:54;;;;;;;1.48;0.60;;;9.80;50.10;;;;;;5039755;28;20300;-77
2021/03/13 10:54:23;;;;;;;1.23;0.68;;;9.80;50.50;;;;;;5039638;28;20663;-77
2021/03/13 10:56:50;;;;;;;1.75;1.00;;;9.70;51.60;;;;;;5040640;28;20227;-77
2021/03/13 10:59:17;;;;;;;3.85;0.65;;;9.70;50.90;;;;;;5040629;28;20230;-77
2021/03/13 11:01:45;;;;;;;1.70;0.85;;;9.70;52.70;;;;;;5040596;28;20218;-77
2021/03/13 11:04:12;;;;;;;0.95;0.70;;;9.50;53.00;;;;;;5041920;28;20298;-77
2021/03/13 11:06:39;;;;;;;1.73;1.00;;;9.50;54.50;;;;;;5041784;28;20223;-77
2021/03/13 11:09:07;;;;;;;2.05;0.68;;;9.30;56.50;;;;;;5042805;28;20298;-77
2021/03/13 11:11:35;;;;;;;3.10;0.85;;;9.20;57.80;;;;;;5046785;28;20222;-78
2021/03/13 11:14:01;;;;;;;0.70;0.70;;;9.10;59.60;;;;;;5051777;28;20314;-77
2021/03/13 11:16:28;;;;;;;2.00;0.80;;;9.00;60.90;;;;;;5042138;28;20265;-78
2021/03/13 11:18:56;;;;;;;0.57;0.50;;;8.90;62.50;;;;;;5039229;28;20199;-78
2021/03/13 11:21:24;;;;;;;2.05;0.75;;;8.90;64.10;;;;;;5044510;28;20234;-79
2021/03/13 11:23:50;;;;;;;2.13;0.73;;;8.80;66.60;;;;;;5047681;28;20203;-77
2021/03/13 11:26:17;;;;;;;1.10;0.63;;;8.70;68.20;;;;;;5043753;28;20266;-79
2021/03/13 11:28:43;;;;;;;0.77;0.77;;;8.60;69.70;;;;;;5049556;28;20199;-78
2021/03/13 11:31:11;;;;;;;2.13;0.90;;;8.60;72.10;;;;;;5051132;28;20233;-77
2021/03/13 11:33:38;;;;;;;2.17;0.88;;;8.60;72.80;;;;;;5050803;28;20207;-78
2021/03/13 11:36:06;;;;;;;2.25;1.08;;;8.60;72.70;;;;;;5041365;28;20587;-78
2021/03/13 11:38:34;;;;;;;2.60;0.90;;;8.60;72.10;;;;;;5038944;28;20234;-78
2021/03/13 11:41:02;;;;;;;2.92;1.25;;;8.60;69.40;;;;;;5043943;28;20203;-77
2021/03/13 11:43:29;;;;;;;1.65;0.90;;;8.70;69.30;;;;;;5040475;28;20215;-79
2021/03/13 11:45:55;;;;;;;2.67;1.33;;;8.70;67.40;;;;;;5022907;28;20294;-77
2021/03/13 11:48:22;;;;;;;1.20;0.77;;;8.90;66.50;;;;;;5020395;28;20201;-79
2021/03/13 11:50:49;;;;;;;2.35;0.60;;;8.90;65.80;;;;;;5031433;28;20290;-78
2021/03/13 11:53:18;;;;;;;3.28;0.60;;;9.00;64.30;;;;;;5031008;28;20232;-78
2021/03/13 11:55:44;;;;;;;2.08;0.85;;;9.00;62.40;;;;;;5029021;28;20266;-77
2021/03/13 11:58:11;;;;;;;2.85;0.90;;;9.10;62.00;;;;;;5038750;28;20206;-79
2021/03/13 12:00:37;;;;;;;2.30;0.70;;;9.10;61.80;;;;;;5039305;28;20294;-77
2021/03/13 12:03:04;;;;;;;3.88;0.60;;;9.10;61.40;;;;;;5029236;28;20258;-80
2021/03/13 12:05:30;;;;;;;1.60;1.35;;;9.10;60.20;;;;;;5017908;28;20227;-79
2021/03/13 12:07:57;;;;;;;2.08;1.10;;;9.20;62.30;;;;;;5020598;28;20263;-79
2021/03/13 12:10:24;;;;;;;2.75;1.15;;;8.90;68.40;;;;;;5018099;28;20207;-77
2021/03/13 12:13:01;;;;;;;1.30;0.75;;;8.50;74.90;;;;;;5186801;23;20453;-79
2021/03/13 12:15:27;;;;;;;1.23;1.02;;;8.20;76.50;;;;;;5055934;28;20243;-76
2021/03/13 12:17:54;;;;;;;1.85;0.93;;;8.10;79.30;;;;;;5050342;28;20191;-79
2021/03/13 12:20:20;;;;;;;1.42;0.70;;;8.10;78.10;;;;;;5051081;28;20207;-77
2021/03/13 12:22:46;;;;;;;0.60;0.60;;;8.00;78.40;;;;;;5050940;28;20199;-78
2021/03/13 12:25:13;;;;;;;0.70;0.50;;;7.90;77.60;;;;;;5043643;28;20199;-77
2021/03/13 12:27:40;;;;;;;0.65;0.50;;;7.90;76.20;;;;;;5036755;28;20207;-79
2021/03/13 12:30:09;;;;;;;0.55;0.52;;;7.90;77.00;;;;;;5017963;28;20204;-78
2021/03/13 12:32:35;;;;;;;1.02;0.50;;;7.90;75.50;;;;;;5019944;28;20235;-78
2021/03/13 12:35:02;;;;;;;0.95;0.47;;;7.90;73.30;;;;;;5020074;28;20305;-77
2021/03/13 12:37:29;;;;;;;0.40;0.40;;;7.80;68.20;;;;;;5017280;28;20235;-79
2021/03/13 12:39:56;;;;;;;0.85;0.40;;;7.70;66.60;;;;;;5035755;28;20323;-78
2021/03/13 12:42:22;;;;;;;1.85;0.40;;;7.60;67.20;;;;;;5017968;28;20212;-78
2021/03/13 12:44:50;;;;;;;3.05;0.73;;;7.50;70.80;;;;;;5033169;28;20298;-77
2021/03/13 12:47:16;;;;;;;0.95;0.57;;;7.20;70.50;;;;;;5042040;28;20223;-79
2021/03/13 12:49:43;;;;;;;3.72;0.70;;;6.90;70.00;;;;;;5032649;28;20208;-78
2021/03/13 12:52:09;;;;;;;0.68;0.68;;;6.80;73.30;;;;;;5031219;28;20219;-77
2021/03/13 12:54:36;;;;;;;2.03;0.95;;;6.70;73.30;;;;;;5032316;28;20208;-78
2021/03/13 12:57:02;;;;;;;3.35;0.70;;;6.70;72.10;;;;;;5034168;28;20253;-78
2021/03/13 12:59:29;;;;;;;0.68;0.50;;;6.80;73.70;;;;;;5049674;28;20277;-78
2021/03/13 13:01:56;;;;;;;3.22;0.95;;;6.80;72.00;;;;;;5038235;28;20693;-78
2021/03/13 13:04:23;;;;;;;3.33;0.80;;;6.70;70.30;;;;;;5021382;28;20208;-78
2021/03/13 13:06:49;;;;;;;1.90;1.05;;;6.70;71.70;;;;;;5027932;28;20219;-79